Time;durP1;ratioP1;P1;durP2;ratioP2;P2;SDS_P1;SDS_P2;PMS_P1;PMS_P2;Temp;Humidity;BMP_temperature;BMP_pressure;BME280_temperature;BME280_humidity;BME280_pressure;Samples;Min_cycle;Max_cycle;Signal;HPM_P1;HPM_P2
2022/06/04 00:01:56;;;;;;;;;14.80;14.40;;;;;27.09;45.44;99422.72;5047285;28;8888;-77
2022/06/04 00:04:25;;;;;;;;;12.00;12.00;;;;;27.10;45.43;99434.28;5046930;28;8841;-77
2022/06/04 00:06:54;;;;;;;;;14.60;14.60;;;;;27.02;45.85;99424.13;5055260;28;8855;-77
2022/06/04 00:09:24;;;;;;;;;16.00;16.00;;;;;26.94;45.90;99416.66;5089184;28;8874;-78
2022/06/04 00:17:26;;;;;;;;;15.80;15.60;;;;;26.69;46.75;99425.50;5090131;28;8836;-77
2022/06/04 00:19:54;;;;;;;;;13.80;13.80;;;;;26.64;46.45;99411.63;5088919;28;8855;-77
2022/06/04 00:22:23;;;;;;;;;16.60;16.20;;;;;26.57;46.59;99403.13;5068829;28;8977;-74
2022/06/04 00:24:53;;;;;;;;;8.80;7.80;;;;;26.43;47.38;99406.75;5088930;28;8907;-74
2022/06/04 00:27:22;;;;;;;;;15.40;15.40;;;;;26.34;47.77;99414.56;5089193;28;8859;-73
2022/06/04 00:29:51;;;;;;;;;16.00;15.60;;;;;26.29;48.01;99422.88;5088942;28;8840;-73
2022/06/04 00:32:19;;;;;;;;;15.40;15.40;;;;;26.28;47.69;99439.88;5070139;28;8990;-74
2022/06/04 00:34:48;;;;;;;;;13.60;13.60;;;;;26.31;47.57;99453.03;5087959;28;8851;-73
2022/06/04 00:37:17;;;;;;;;;13.60;13.20;;;;;26.33;47.54;99464.47;5088120;28;8860;-74
2022/06/04 00:39:46;;;;;;;;;14.60;14.00;;;;;26.33;47.85;99472.50;5053680;28;8863;-74
2022/06/04 00:42:20;;;;;;;;;15.40;15.40;;;;;26.38;47.71;99485.56;5089191;28;8848;-74
2022/06/04 00:45:30;;;;;;;;;14.60;14.40;;;;;26.43;47.31;99497.66;5089265;28;8816;-74
2022/06/04 00:47:59;;;;;;;;;17.20;14.60;;;;;26.47;47.47;99524.22;5089446;28;8863;-74
2022/06/04 00:50:31;;;;;;;;;17.80;17.40;;;;;26.35;48.42;99531.22;5088874;28;8863;-75
2022/06/04 00:53:03;;;;;;;;;17.80;17.40;;;;;26.29;49.14;99543.19;5088945;28;8848;-74
2022/06/04 00:55:42;;;;;;;;;18.60;18.20;;;;;26.33;48.76;99549.19;5089201;28;8854;-75
2022/06/04 00:58:33;;;;;;;;;18.00;17.80;;;;;26.11;49.56;99561.28;5089383;28;8856;-74
2022/06/04 01:01:14;;;;;;;;;17.20;17.20;;;;;26.28;48.84;99562.88;5089691;28;8972;-73
2022/06/04 01:03:56;;;;;;;;;18.80;18.80;;;;;26.26;48.98;99578.16;5089580;28;8848;-74
2022/06/04 01:06:39;;;;;;;;;17.00;16.60;;;;;26.25;49.71;99587.97;5089456;28;8844;-75
2022/06/04 01:09:35;;;;;;;;;17.60;17.40;;;;;26.35;49.02;99609.66;5089402;28;8864;-75
2022/06/04 01:12:23;;;;;;;;;15.00;14.40;;;;;26.45;48.93;99605.41;5089424;28;8831;-75
2022/06/04 01:15:05;;;;;;;;;18.60;17.20;;;;;26.50;48.04;99609.56;5089861;28;8848;-75
2022/06/04 01:17:47;;;;;;;;;16.00;15.20;;;;;26.41;48.61;99608.38;5089576;28;8847;-76
2022/06/04 01:20:25;;;;;;;;;15.60;15.60;;;;;26.31;48.67;99617.94;5090238;28;8859;-74
2022/06/04 01:23:15;;;;;;;;;15.00;15.00;;;;;26.42;48.06;99618.09;5089633;28;8862;-74
2022/06/04 01:26:03;;;;;;;;;14.60;14.60;;;;;26.51;48.30;99630.03;5089490;28;8844;-75
2022/06/04 01:28:37;;;;;;;;;16.40;15.60;;;;;26.50;48.30;99630.97;5089404;28;8831;-73
2022/06/04 01:31:08;;;;;;;;;14.40;14.00;;;;;26.52;48.20;99639.75;5070182;28;8886;-74
2022/06/04 01:33:39;;;;;;;;;14.00;13.40;;;;;26.49;48.57;99646.16;5071553;28;8863;-74
2022/06/04 01:36:14;;;;;;;;;16.20;15.80;;;;;26.45;48.66;99642.00;5093460;28;8966;-74
2022/06/04 01:38:47;;;;;;;;;19.20;17.80;;;;;26.28;48.79;99643.06;5093184;28;8948;-74
2022/06/04 01:41:22;;;;;;;;;14.40;13.40;;;;;26.34;48.81;99637.31;5093258;28;8854;-75
2022/06/04 01:43:53;;;;;;;;;19.40;19.20;;;;;26.12;49.35;99632.50;5092800;28;8847;-74
2022/06/04 01:46:26;;;;;;;;;17.40;15.20;;;;;25.55;51.25;99622.66;5093283;28;8851;-74
2022/06/04 01:49:04;;;;;;;;;16.40;15.80;;;;;25.31;51.59;99619.66;5093005;28;8839;-74
2022/06/04 01:51:34;;;;;;;;;15.80;15.20;;;;;25.06;52.62;99620.25;5093302;28;8876;-74
2022/06/04 01:54:09;;;;;;;;;19.60;19.40;;;;;24.88;53.60;99612.38;5092895;28;8835;-74
2022/06/04 01:56:44;;;;;;;;;17.40;17.40;;;;;24.82;53.82;99607.41;5069991;28;8860;-75
2022/06/04 01:59:19;;;;;;;;;17.60;17.60;;;;;24.74;54.02;99598.97;5084190;28;8894;-74
2022/06/04 02:01:52;;;;;;;;;15.60;15.60;;;;;24.66;54.17;99593.25;5092793;28;8855;-73
2022/06/04 02:04:27;;;;;;;;;13.40;12.40;;;;;24.65;54.27;99588.84;5092893;28;9581;-73
2022/06/04 02:09:52;;;;;;;;;16.40;16.40;;;;;24.33;55.69;99579.06;5056966;28;8885;-76
2022/06/04 02:12:23;;;;;;;;;16.80;16.80;;;;;24.25;55.97;99578.66;5092939;28;8832;-75
2022/06/04 02:14:52;;;;;;;;;18.40;18.40;;;;;24.29;55.98;99566.88;5092836;28;8862;-75
2022/06/04 02:17:25;;;;;;;;;18.40;18.20;;;;;24.09;56.76;99570.66;5092510;28;8868;-74
2022/06/04 02:19:54;;;;;;;;;17.00;17.00;;;;;24.06;56.86;99560.16;5092919;28;8878;-74
2022/06/04 02:22:22;;;;;;;;;17.60;17.60;;;;;23.94;57.05;99545.72;5092253;28;8867;-75
2022/06/04 02:24:51;;;;;;;;;17.80;15.80;;;;;24.11;56.73;99523.47;5092799;28;8928;-74
2022/06/04 02:27:20;;;;;;;;;18.60;16.60;;;;;24.07;57.08;99519.25;5092410;28;8824;-74
2022/06/04 02:29:50;;;;;;;;;17.60;17.60;;;;;23.99;57.30;99502.84;5091722;28;8873;-75
2022/06/04 02:32:27;;;;;;;;;16.40;14.80;;;;;23.84;58.04;99504.56;5091732;28;8865;-75
2022/06/04 02:35:03;;;;;;;;;16.40;15.60;;;;;23.82;58.26;99489.59;5091495;28;8851;-76
2022/06/04 02:37:40;;;;;;;;;20.20;20.00;;;;;23.71;58.61;99474.22;5091613;28;8983;-73
2022/06/04 02:40:15;;;;;;;;;17.40;16.20;;;;;23.78;58.53;99472.06;5090469;28;8866;-75
2022/06/04 02:42:48;;;;;;;;;16.00;16.00;;;;;23.89;58.13;99467.03;5090959;28;8856;-74
2022/06/04 02:45:25;;;;;;;;;19.40;18.40;;;;;23.81;58.55;99456.81;5055241;28;8882;-73
2022/06/04 02:48:01;;;;;;;;;18.60;17.60;;;;;23.94;58.08;99449.81;5092116;28;9737;-74
2022/06/04 02:50:36;;;;;;;;;20.40;18.00;;;;;24.07;58.01;99447.31;5072895;28;8843;-74
2022/06/04 02:53:06;;;;;;;;;19.20;17.40;;;;;24.00;58.00;99443.28;5091268;28;8871;-75
2022/06/04 02:55:40;;;;;;;;;18.40;18.40;;;;;24.00;58.13;99434.44;5091317;28;8862;-74
2022/06/04 02:58:13;;;;;;;;;18.20;18.20;;;;;23.95;58.19;99424.06;5091032;28;8836;-74
2022/06/04 03:00:51;;;;;;;;;18.60;18.60;;;;;24.24;57.02;99413.50;5091224;28;8871;-74
2022/06/04 03:03:20;;;;;;;;;20.60;19.40;;;;;24.44;56.15;99405.19;5091340;28;9079;-74
2022/06/04 03:05:55;;;;;;;;;20.80;19.60;;;;;24.67;55.43;99397.63;5055805;28;8836;-73
2022/06/04 03:08:24;;;;;;;;;20.40;20.40;;;;;24.78;55.02;99400.47;5091077;28;8848;-74
2022/06/04 03:10:53;;;;;;;;;23.40;22.60;;;;;24.93;54.35;99393.31;5091924;28;8839;-75
2022/06/04 03:13:21;;;;;;;;;22.80;22.00;;;;;25.10;53.74;99387.81;5090096;28;8945;-73
2022/06/04 03:15:51;;;;;;;;;24.80;23.20;;;;;25.24;52.74;99370.94;5091031;28;8827;-73
2022/06/04 03:18:21;;;;;;;;;22.20;21.40;;;;;25.37;51.94;99368.34;5090863;28;8848;-74
2022/06/04 03:20:49;;;;;;;;;18.25;17.50;;;;;25.51;51.07;99370.13;5039153;28;8877;-75
2022/06/04 03:23:18;;;;;;;;;23.80;21.80;;;;;25.65;50.47;99378.09;5072199;28;8960;-74
2022/06/04 03:25:46;;;;;;;;;25.60;23.40;;;;;25.78;50.05;99375.44;5089702;28;8936;-73
2022/06/04 03:28:15;;;;;;;;;20.60;19.80;;;;;25.87;49.41;99376.66;5089534;28;9780;-74
2022/06/04 03:30:44;;;;;;;;;21.80;21.80;;;;;25.96;49.22;99376.06;5091021;28;8847;-74
2022/06/04 03:33:14;;;;;;;;;19.60;18.80;;;;;26.03;49.30;99372.03;5071394;28;8859;-75
2022/06/04 03:35:43;;;;;;;;;22.00;21.00;;;;;26.08;48.95;99353.00;5091048;28;8967;-74
2022/06/04 03:38:12;;;;;;;;;19.60;19.20;;;;;26.14;48.04;99349.91;5090692;28;8944;-74
2022/06/04 03:40:41;;;;;;;;;20.80;20.40;;;;;26.25;48.13;99354.53;5089265;28;8835;-73
2022/06/04 03:43:09;;;;;;;;;20.00;19.20;;;;;26.34;47.15;99343.22;5090475;28;8860;-74
2022/06/04 03:45:37;;;;;;;;;22.20;21.80;;;;;26.44;47.00;99335.41;5090190;28;8851;-74
2022/06/04 03:48:07;;;;;;;;;18.20;16.20;;;;;26.52;46.80;99337.53;5090287;28;8839;-74
2022/06/04 03:50:37;;;;;;;;;23.75;21.75;;;;;26.52;46.21;99333.06;5071522;28;9627;-75
2022/06/04 03:53:05;;;;;;;;;21.80;21.80;;;;;26.60;46.37;99340.59;5054565;28;8836;-74
2022/06/04 03:55:34;;;;;;;;;21.80;21.80;;;;;26.66;46.75;99344.66;5090148;28;8986;-74
2022/06/04 03:58:03;;;;;;;;;30.75;30.25;;;;;26.76;46.51;99348.38;5089942;28;8890;-75
2022/06/04 04:00:35;;;;;;;;;27.25;24.50;;;;;26.72;46.82;99346.88;5054481;28;8872;-75
2022/06/04 04:03:12;;;;;;;;;19.75;19.75;;;;;26.87;47.83;99366.34;5089962;28;8827;-74
2022/06/04 04:05:47;;;;;;;;;23.60;23.40;;;;;26.91;49.50;99375.84;5054103;28;8863;-76
2022/06/04 04:08:17;;;;;;;;;23.40;22.20;;;;;26.87;49.80;99391.28;5089771;28;8867;-74
2022/06/04 04:10:47;;;;;;;;;29.75;28.00;;;;;26.38;49.59;99397.34;5089579;28;8874;-76
2022/06/04 04:13:18;;;;;;;;;40.25;34.75;;;;;26.54;49.75;99397.13;5090036;28;8963;-75
2022/06/04 04:15:46;;;;;;;;;47.75;40.50;;;;;26.60;50.13;99405.63;5089762;28;8890;-73
2022/06/04 04:18:15;;;;;;;;;41.75;37.25;;;;;26.64;50.61;99401.78;5088459;28;8879;-74
2022/06/04 04:20:47;;;;;;;;;36.25;32.75;;;;;26.71;50.73;99418.25;5089269;28;8864;-74
2022/06/04 04:23:16;;;;;;;;;30.25;30.25;;;;;26.71;51.23;99404.88;5089296;28;8844;-74
2022/06/04 04:25:44;;;;;;;;;30.00;28.50;;;;;26.61;51.75;99403.78;5089671;28;8845;-74
2022/06/04 04:28:13;;;;;;;;;28.00;26.00;;;;;26.52;51.83;99412.41;5089675;28;8882;-75
2022/06/04 04:30:41;;;;;;;;;32.00;31.00;;;;;26.58;51.63;99412.03;5053756;28;8859;-75
2022/06/04 04:33:10;;;;;;;;;31.25;29.75;;;;;26.66;51.51;99415.03;5089529;28;8890;-73
2022/06/04 04:35:39;;;;;;;;;31.50;30.00;;;;;26.43;52.09;99411.25;5087756;28;8840;-74
2022/06/04 04:38:11;;;;;;;;;31.75;30.50;;;;;26.44;52.03;99418.28;5089403;28;8844;-74
2022/06/04 04:40:42;;;;;;;;;29.50;29.50;;;;;26.63;51.90;99424.16;5053766;28;8883;-74
2022/06/04 04:43:11;;;;;;;;;26.75;26.00;;;;;26.77;51.46;99423.19;5089417;28;8844;-75
2022/06/04 04:45:39;;;;;;;;;30.50;29.25;;;;;26.96;51.54;99422.75;5088851;28;8862;-75
2022/06/04 04:48:07;;;;;;;;;28.25;27.75;;;;;27.03;51.26;99423.16;5089150;28;8848;-73
2022/06/04 04:50:39;;;;;;;;;27.50;26.75;;;;;27.08;51.34;99429.03;5087854;28;8832;-75
2022/06/04 04:53:11;;;;;;;;;28.25;27.50;;;;;27.21;51.29;99437.91;5088701;28;8852;-74
2022/06/04 04:55:40;;;;;;;;;28.75;28.75;;;;;27.28;51.50;99446.41;5088844;28;8840;-75
2022/06/04 04:58:10;;;;;;;;;27.00;26.00;;;;;27.38;51.05;99443.91;5088812;28;8858;-75
2022/06/04 05:00:38;;;;;;;;;28.75;28.25;;;;;27.40;50.60;99447.34;5088879;28;9581;-74
2022/06/04 05:03:07;;;;;;;;;28.50;28.50;;;;;27.46;51.03;99438.84;5089825;28;8839;-74
2022/06/04 05:05:36;;;;;;;;;30.00;29.75;;;;;27.51;50.52;99446.56;5089705;28;8840;-72
2022/06/04 05:08:05;;;;;;;;;31.00;30.00;;;;;27.34;50.58;99445.13;5087636;28;8978;-74
2022/06/04 05:10:35;;;;;;;;;29.00;29.00;;;;;27.51;50.77;99450.09;5089152;28;8873;-76
2022/06/04 05:13:04;;;;;;;;;29.50;28.75;;;;;27.64;50.14;99444.72;5089059;28;8840;-74
2022/06/04 05:15:32;;;;;;;;;30.75;29.25;;;;;27.78;49.77;99449.03;5089135;28;8966;-75
2022/06/04 05:18:01;;;;;;;;;32.75;30.00;;;;;27.90;49.71;99448.19;5088693;28;8824;-73
2022/06/04 05:20:29;;;;;;;;;27.75;27.75;;;;;28.04;49.39;99438.25;5088685;28;8865;-74
2022/06/04 05:22:58;;;;;;;;;27.50;25.75;;;;;28.15;49.38;99444.53;5088620;28;8970;-74
2022/06/04 05:25:26;;;;;;;;;25.00;23.50;;;;;28.25;49.11;99447.34;5088761;28;8840;-73
2022/06/04 05:28:00;;;;;;;;;28.00;27.00;;;;;28.22;48.14;99441.38;5088657;28;8847;-74
2022/06/04 05:30:29;;;;;;;;;26.75;25.75;;;;;28.33;48.35;99436.88;5089068;28;8866;-75
2022/06/04 05:32:57;;;;;;;;;28.75;26.50;;;;;28.40;47.75;99434.59;5053146;28;8901;-75
2022/06/04 05:35:26;;;;;;;;;24.25;23.75;;;;;28.42;47.88;99435.34;5089010;28;8835;-75
2022/06/04 05:37:54;;;;;;;;;25.00;23.25;;;;;28.46;48.21;99436.81;5088879;28;8828;-73
2022/06/04 05:40:23;;;;;;;;;25.00;24.75;;;;;28.49;48.22;99427.69;5088845;28;8872;-75
2022/06/04 05:42:51;;;;;;;;;26.75;26.00;;;;;28.44;48.41;99430.72;5088748;28;8824;-74
2022/06/04 05:45:21;;;;;;;;;24.25;23.50;;;;;28.54;48.38;99430.88;5088981;28;8832;-75
2022/06/04 05:47:50;;;;;;;;;22.50;22.50;;;;;28.49;47.59;99433.91;5088501;28;9616;-74
2022/06/04 05:50:18;;;;;;;;;20.75;20.50;;;;;28.50;47.58;99429.38;5088558;28;8982;-75
2022/06/04 05:52:47;;;;;;;;;21.50;20.25;;;;;28.60;47.29;99429.56;5088519;28;9641;-76
2022/06/04 05:55:15;;;;;;;;;20.20;20.20;;;;;28.68;46.99;99430.69;5088589;28;8854;-75
2022/06/04 05:57:44;;;;;;;;;20.20;20.20;;;;;28.80;46.34;99434.22;5088410;28;8877;-75
2022/06/04 06:00:14;;;;;;;;;19.20;18.20;;;;;28.87;46.11;99432.78;5088501;28;8863;-75
2022/06/04 06:02:44;;;;;;;;;20.80;20.80;;;;;28.85;46.13;99437.41;5088511;28;8848;-74
2022/06/04 06:05:20;;;;;;;;;19.80;19.80;;;;;28.95;45.46;99435.72;5088312;28;8847;-72
2022/06/04 06:07:48;;;;;;;;;22.00;22.00;;;;;28.96;45.84;99428.50;5088446;28;8856;-74
2022/06/04 06:10:17;;;;;;;;;19.40;19.40;;;;;28.96;45.81;99434.75;5088510;28;8859;-74
2022/06/04 06:12:46;;;;;;;;;24.40;21.20;;;;;28.91;46.09;99433.41;5088492;28;8847;-76
2022/06/04 06:15:14;;;;;;;;;22.00;22.00;;;;;28.93;46.05;99432.28;5088303;28;8933;-75
2022/06/04 06:17:44;;;;;;;;;20.00;19.00;;;;;28.87;46.26;99437.31;5088266;28;9017;-76
2022/06/04 06:20:13;;;;;;;;;23.60;23.20;;;;;28.89;46.56;99438.88;5088872;28;8859;-74
2022/06/04 06:22:41;;;;;;;;;21.50;21.25;;;;;28.82;46.79;99440.34;5091582;28;8874;-73
2022/06/04 06:25:10;;;;;;;;;23.60;22.20;;;;;28.95;46.68;99437.53;5091638;28;8878;-75
2022/06/04 06:27:39;;;;;;;;;23.40;22.60;;;;;29.07;46.62;99433.88;5091634;28;8832;-72
2022/06/04 06:30:08;;;;;;;;;22.00;22.00;;;;;29.15;46.57;99438.69;5091490;28;8855;-74
2022/06/04 06:32:37;;;;;;;;;20.00;20.00;;;;;29.28;46.65;99430.50;5091921;28;8852;-75
2022/06/04 06:35:08;;;;;;;;;23.50;23.50;;;;;29.30;46.25;99429.41;5091703;28;8855;-74
2022/06/04 06:37:37;;;;;;;;;22.75;22.50;;;;;29.32;46.58;99429.25;5072372;28;8954;-75
2022/06/04 06:40:07;;;;;;;;;22.75;22.75;;;;;29.48;46.51;99418.16;5022515;28;8847;-73
2022/06/04 06:42:36;;;;;;;;;22.75;22.75;;;;;29.45;46.33;99426.44;5091163;28;8840;-73
2022/06/04 06:45:09;;;;;;;;;23.25;22.75;;;;;29.55;46.16;99425.56;5089718;28;9648;-74
2022/06/04 06:47:39;;;;;;;;;22.40;21.80;;;;;29.67;45.56;99425.56;5072391;28;8847;-74
2022/06/04 06:50:10;;;;;;;;;20.25;20.25;;;;;29.62;45.41;99422.38;5091056;28;8992;-74
2022/06/04 06:52:38;;;;;;;;;22.75;22.50;;;;;29.74;45.08;99416.03;5055438;28;9024;-74
2022/06/04 06:55:08;;;;;;;;;18.75;17.25;;;;;29.73;44.78;99419.69;5091016;28;8844;-75
2022/06/04 06:57:37;;;;;;;;;22.40;21.60;;;;;29.86;45.08;99414.16;5089486;28;8940;-75
2022/06/04 07:00:06;;;;;;;;;7.00;4.00;;;;;30.03;44.39;99415.44;5091131;28;8863;-75
2022/06/04 07:02:35;;;;;;;;;24.00;22.25;;;;;29.86;44.57;99408.78;5056224;28;8860;-76
2022/06/04 07:05:04;;;;;;;;;22.20;20.20;;;;;30.12;43.70;99420.06;5091146;28;8879;-75
2022/06/04 07:07:33;;;;;;;;;23.00;22.40;;;;;30.37;42.92;99415.31;5091100;28;8844;-73
2022/06/04 07:10:03;;;;;;;;;22.00;20.80;;;;;30.59;43.45;99414.34;5090994;28;10076;-73
2022/06/04 07:12:32;;;;;;;;;21.80;21.80;;;;;30.73;42.63;99415.84;5090615;28;8835;-76
2022/06/04 07:15:00;;;;;;;;;20.75;19.50;;;;;30.86;41.93;99411.09;5054628;28;8881;-74
2022/06/04 07:17:29;;;;;;;;;21.25;20.00;;;;;30.95;41.65;99414.84;5090257;28;8867;-74
2022/06/04 07:19:58;;;;;;;;;21.25;20.75;;;;;30.96;42.16;99403.94;5090204;28;8876;-74
2022/06/04 07:22:26;;;;;;;;;22.75;21.75;;;;;30.85;42.95;99412.06;5088924;28;8855;-74
2022/06/04 07:24:57;;;;;;;;;25.00;23.75;;;;;31.03;42.34;99402.41;5090526;28;8858;-74
2022/06/04 07:27:25;;;;;;;;;21.50;21.50;;;;;30.70;42.53;99403.50;5090339;28;8866;-75
2022/06/04 07:29:54;;;;;;;;;19.75;19.25;;;;;30.82;42.21;99404.28;5089166;28;8851;-74
2022/06/04 07:32:22;;;;;;;;;22.25;22.25;;;;;30.92;41.29;99396.25;5089689;28;8835;-73
2022/06/04 07:34:51;;;;;;;;;24.50;23.75;;;;;31.12;40.82;99398.06;5090751;28;8839;-74
2022/06/04 07:37:20;;;;;;;;;22.50;21.75;;;;;31.17;40.84;99401.16;5091100;28;8839;-75
2022/06/04 07:39:49;;;;;;;;;21.00;20.00;;;;;31.26;40.03;99411.13;5090008;28;8852;-74
2022/06/04 07:42:21;;;;;;;;;26.75;23.75;;;;;31.23;39.49;99406.03;5054081;28;8855;-74
2022/06/04 07:44:49;;;;;;;;;23.50;23.50;;;;;30.88;38.97;99411.81;5090343;28;8836;-75
2022/06/04 07:47:18;;;;;;;;;19.50;18.50;;;;;31.00;39.43;99413.47;5089730;28;8871;-75
2022/06/04 07:49:46;;;;;;;;;20.50;20.50;;;;;31.24;39.42;99414.97;5053987;28;8923;-74
2022/06/04 07:52:15;;;;;;;;;24.25;22.00;;;;;31.37;39.72;99418.25;5088459;28;8893;-73
2022/06/04 07:54:44;;;;;;;;;20.00;19.75;;;;;31.54;39.57;99403.31;5089385;28;8847;-74
2022/06/04 07:57:12;;;;;;;;;18.00;17.00;;;;;31.68;39.11;99404.72;5089706;28;8859;-76
2022/06/04 07:59:43;;;;;;;;;18.25;18.25;;;;;31.76;39.28;99402.22;5088123;28;8885;-75
2022/06/04 08:02:12;;;;;;;;;19.50;18.25;;;;;31.89;38.98;99406.47;5089634;28;8855;-74
2022/06/04 08:04:41;;;;;;;;;18.25;18.25;;;;;31.69;39.42;99403.75;5053658;28;8968;-75
2022/06/04 08:07:09;;;;;;;;;20.75;20.50;;;;;31.45;39.87;99407.63;5089346;28;8859;-74
2022/06/04 08:09:39;;;;;;;;;20.25;20.25;;;;;31.59;39.55;99405.56;5087853;28;8856;-74
2022/06/04 08:12:08;;;;;;;;;21.75;19.25;;;;;31.69;39.66;99411.00;5087846;28;8871;-75
2022/06/04 08:14:36;;;;;;;;;19.75;19.50;;;;;31.79;39.36;99410.00;5053656;28;8859;-75
2022/06/04 08:17:06;;;;;;;;;18.25;18.00;;;;;31.84;39.47;99415.00;5070397;28;8836;-75
2022/06/04 08:19:35;;;;;;;;;22.00;21.00;;;;;32.02;39.05;99410.63;5089239;28;8852;-74
2022/06/04 08:22:04;;;;;;;;;22.75;20.50;;;;;32.05;39.50;99417.59;5089105;28;8847;-75
2022/06/04 08:24:33;;;;;;;;;19.75;17.50;;;;;31.93;38.94;99405.19;5069657;28;8867;-74
2022/06/04 08:27:02;;;;;;;;;20.75;20.75;;;;;32.07;38.96;99410.19;5088849;28;8992;-74
2022/06/04 08:29:34;;;;;;;;;24.50;22.50;;;;;32.19;39.34;99414.47;5068323;28;8985;-76
2022/06/04 08:32:13;;;;;;;;;21.50;21.00;;;;;32.33;38.63;99399.69;5068603;28;8951;-75
2022/06/04 08:34:42;;;;;;;;;22.25;21.75;;;;;32.37;38.88;99403.78;5067519;28;9631;-75
2022/06/04 08:37:11;;;;;;;;;20.75;20.25;;;;;32.07;39.62;99396.72;5068840;28;8978;-74
2022/06/04 08:39:39;;;;;;;;;26.00;25.50;;;;;32.04;40.03;99391.59;5067845;28;8880;-74
2022/06/04 08:42:23;;;;;;;;;25.00;22.50;;;;;32.29;39.35;99390.16;5068126;28;8890;-75
2022/06/04 08:44:58;;;;;;;;;22.75;22.25;;;;;32.40;39.27;99383.75;5049567;28;8869;-75
2022/06/04 08:47:33;;;;;;;;;21.00;21.00;;;;;32.59;38.81;99388.28;5068383;28;8839;-74
2022/06/04 08:50:12;;;;;;;;;21.25;21.25;;;;;32.61;39.12;99380.91;5068352;28;8850;-73
2022/06/04 08:52:43;;;;;;;;;21.50;20.50;;;;;32.39;39.62;99376.66;5032715;28;8831;-75
2022/06/04 08:58:20;;;;;;;;;25.75;23.25;;;;;32.52;38.26;99371.78;5067589;28;8974;-76
2022/06/04 09:00:56;;;;;;;;;24.00;24.00;;;;;32.65;36.63;99376.91;5085874;28;8828;-74
2022/06/04 09:03:34;;;;;;;;;22.50;22.25;;;;;32.58;35.26;99381.19;5087258;28;9666;-75
2022/06/04 09:06:13;;;;;;;;;22.25;22.25;;;;;32.69;35.60;99378.31;5087177;28;8864;-75
2022/06/04 09:08:54;;;;;;;;;19.75;19.25;;;;;32.45;35.40;99379.59;5088640;28;8852;-75
2022/06/04 09:11:28;;;;;;;;;19.00;19.00;;;;;32.46;35.83;99366.97;5088777;28;8863;-75
2022/06/04 09:14:12;;;;;;;;;24.25;24.00;;;;;32.57;36.99;99374.94;5088903;28;8851;-74
2022/06/04 09:16:46;;;;;;;;;19.50;19.50;;;;;32.48;36.31;99373.09;5088656;28;8855;-75
2022/06/04 09:19:20;;;;;;;;;24.00;24.00;;;;;32.30;36.20;99364.03;5088087;28;8851;-75
2022/06/04 09:21:49;;;;;;;;;22.00;21.50;;;;;32.50;35.70;99367.53;5088218;28;8913;-74
2022/06/04 09:24:17;;;;;;;;;25.25;24.00;;;;;32.51;36.04;99363.84;5088081;28;8867;-75
2022/06/04 09:26:53;;;;;;;;;23.75;23.50;;;;;32.53;35.37;99356.44;5069115;28;8848;-74
2022/06/04 09:29:39;;;;;;;;;21.00;20.25;;;;;32.55;36.00;99363.41;5087848;28;8978;-75
2022/06/04 09:32:17;;;;;;;;;27.50;25.75;;;;;32.60;35.38;99355.72;5088228;28;8872;-75
2022/06/04 09:34:51;;;;;;;;;24.75;23.50;;;;;32.76;35.74;99363.22;5087869;28;8872;-76
2022/06/04 09:37:19;;;;;;;;;24.75;24.75;;;;;32.49;36.22;99361.28;5087854;28;8847;-74
2022/06/04 09:40:02;;;;;;;;;23.50;23.25;;;;;32.64;36.45;99351.72;5088117;28;8848;-78
2022/06/04 09:42:32;;;;;;;;;24.33;23.00;;;;;32.57;36.67;99364.16;5088226;28;8840;-75
2022/06/04 09:45:03;;;;;;;;;26.00;26.00;;;;;32.57;36.72;99356.03;5087950;28;9603;-75
2022/06/04 09:47:38;;;;;;;;;30.00;28.75;;;;;31.94;37.33;99359.19;5088243;28;8967;-74
2022/06/04 09:50:20;;;;;;;;;34.25;31.75;;;;;32.03;38.20;99365.63;5087883;28;8839;-75
2022/06/04 09:53:03;;;;;;;;;30.00;27.75;;;;;32.21;37.14;99368.44;5088054;28;8847;-75
2022/06/04 09:55:35;;;;;;;;;29.25;28.25;;;;;32.45;36.99;99359.88;5090418;28;8840;-75
2022/06/04 09:58:07;;;;;;;;;28.00;28.00;;;;;32.67;36.63;99356.00;5072525;28;8964;-75
2022/06/04 10:00:40;;;;;;;;;27.50;26.75;;;;;32.87;36.71;99359.47;5091573;28;8847;-75
2022/06/04 10:03:13;;;;;;;;;30.25;29.50;;;;;32.63;36.47;99358.16;5091856;28;9728;-77
2022/06/04 10:05:51;;;;;;;;;23.00;23.00;;;;;32.87;36.75;99362.16;5072695;28;9691;-75
2022/06/04 10:08:23;;;;;;;;;22.50;22.50;;;;;32.93;36.26;99358.03;5091571;28;9001;-75
2022/06/04 10:10:59;;;;;;;;;25.25;25.25;;;;;33.03;36.86;99362.38;5091417;28;8847;-75
2022/06/04 10:13:47;;;;;;;;;27.00;27.00;;;;;33.22;36.37;99364.16;5091885;28;8922;-74
2022/06/04 10:16:19;;;;;;;;;28.25;24.50;;;;;32.79;35.89;99362.06;5091357;28;8875;-74
2022/06/04 10:18:59;;;;;;;;;24.50;23.50;;;;;32.88;35.58;99360.34;5091324;28;8851;-75
2022/06/04 10:21:32;;;;;;;;;28.00;26.75;;;;;31.99;37.64;99364.19;5091594;28;8871;-77
2022/06/04 10:24:02;;;;;;;;;23.75;22.25;;;;;31.47;37.64;99370.69;5091192;28;8844;-76
2022/06/04 10:26:57;;;;;;;;;25.25;24.25;;;;;31.08;39.07;99365.16;5091642;28;8848;-76
2022/06/04 10:30:02;;;;;;;;;29.00;26.75;;;;;31.22;39.28;99371.13;5088848;28;8879;-77
2022/06/04 10:32:44;;;;;;;;;27.75;26.75;;;;;31.57;39.19;99364.41;5091349;28;9001;-76
2022/06/04 10:35:36;;;;;;;;;23.25;23.00;;;;;31.42;38.93;99372.06;5091244;28;8855;-75
2022/06/04 10:38:17;;;;;;;;;24.75;23.25;;;;;30.89;39.51;99375.81;5089550;28;8862;-75
2022/06/04 10:41:01;;;;;;;;;27.75;26.75;;;;;31.00;39.84;99373.06;5089547;28;8936;-75
2022/06/04 10:44:12;;;;;;;;;28.25;28.25;;;;;31.14;39.69;99373.69;5090554;28;8871;-74
2022/06/04 10:46:48;;;;;;;;;26.25;26.25;;;;;31.38;39.04;99365.22;5090597;28;8865;-75
2022/06/04 10:49:47;;;;;;;;;26.00;24.50;;;;;31.22;39.69;99377.38;5054947;28;8851;-74
2022/06/04 10:52:25;;;;;;;;;30.25;27.75;;;;;31.23;40.65;99372.81;5089370;28;9005;-76
2022/06/04 10:55:06;;;;;;;;;27.75;25.50;;;;;30.47;41.14;99365.97;5090343;28;9601;-75
2022/06/04 10:57:44;;;;;;;;;28.00;27.00;;;;;30.88;41.19;99366.03;5090550;28;9029;-75
2022/06/04 11:00:18;;;;;;;;;27.50;27.50;;;;;30.89;40.66;99373.13;5090881;28;8949;-74
2022/06/04 11:02:53;;;;;;;;;28.00;27.25;;;;;30.86;40.29;99365.31;5071604;28;8851;-74
2022/06/04 11:05:26;;;;;;;;;25.50;22.75;;;;;31.38;40.06;99360.69;5090358;28;8840;-74
2022/06/04 11:08:03;;;;;;;;;39.00;33.00;;;;;31.65;38.65;99370.81;5090113;28;8933;-74
2022/06/04 11:10:37;;;;;;;;;24.75;22.00;;;;;31.72;37.61;99368.44;5089250;28;8875;-76
2022/06/04 11:13:13;;;;;;;;;21.75;21.75;;;;;31.33;38.99;99384.50;5054642;28;8959;-74
2022/06/04 11:15:49;;;;;;;;;26.50;23.25;;;;;31.21;40.21;99374.81;5089039;28;8851;-76
2022/06/04 11:18:20;;;;;;;;;29.25;26.75;;;;;31.61;39.51;99360.47;5089102;28;8852;-76
2022/06/04 11:20:55;;;;;;;;;20.75;20.75;;;;;31.86;38.59;99362.59;5090364;28;8851;-77
2022/06/04 11:23:33;;;;;;;;;24.25;24.25;;;;;32.20;38.58;99364.88;5090476;28;8867;-75
2022/06/04 11:26:11;;;;;;;;;24.50;24.50;;;;;31.96;38.75;99348.25;5089927;28;8867;-75
2022/06/04 11:28:39;;;;;;;;;25.75;25.00;;;;;32.29;38.72;99351.50;5090145;28;8870;-74
2022/06/04 11:31:33;;;;;;;;;26.50;25.75;;;;;32.45;38.68;99355.31;5090245;28;8890;-74
2022/06/04 11:34:18;;;;;;;;;25.75;24.75;;;;;32.55;38.29;99358.00;5089950;28;8860;-74
2022/06/04 11:36:58;;;;;;;;;26.75;25.75;;;;;32.53;38.09;99349.19;5089872;28;8843;-75
2022/06/04 11:39:48;;;;;;;;;29.50;28.50;;;;;32.80;38.07;99353.81;5053681;28;8990;-74
2022/06/04 11:42:29;;;;;;;;;24.75;24.75;;;;;33.41;37.25;99343.44;5087867;28;9617;-76
2022/06/04 11:45:18;;;;;;;;;25.25;25.00;;;;;33.78;36.22;99353.28;5089563;28;8894;-76
2022/06/04 11:48:05;;;;;;;;;23.25;22.75;;;;;34.23;35.74;99360.47;5089598;28;8875;-76
2022/06/04 11:50:39;;;;;;;;;22.50;21.25;;;;;32.79;37.19;99359.38;5090242;28;8876;-74
2022/06/04 11:53:21;;;;;;;;;4.25;3.00;;;;;32.61;36.93;99365.53;5090018;28;8875;-75
2022/06/04 11:55:54;;;;;;;;;21.00;20.50;;;;;32.03;37.63;99360.22;5090566;28;8832;-75
2022/06/04 11:58:57;;;;;;;;;23.75;22.00;;;;;31.52;39.08;99358.63;5088150;28;8887;-75
2022/06/04 12:01:32;;;;;;;;;26.75;26.50;;;;;31.62;39.33;99356.78;5054256;28;8836;-76
2022/06/04 12:04:07;;;;;;;;;23.50;21.25;;;;;32.15;38.82;99348.28;5089453;28;8835;-75